Aérodrome :
LOGIN :

S'inscrire | Disclaimer

   EN    FR    IT 

 










Légende :    VFR   VFR Marginal   IFR   IFR Intensif   IFR Très Intensif
Visi : 
Plafond : 
>= 8 km
>= 3000ft
5 à 8 km
1000 à 3000 ft
1500m à 5 km
500 à 1000 ft
800 à 1500m
200 à 500 ft
< 800m
< 200 ft
Symboles :   Orages  Brouillard  Fortes neiges  Fortes précipitations  Vent > 20 kt
SIGMETs :   Divers  Orages  Givrage  Turbulence  Onde Orograph.  Cendres Volcan.






- Altitude de l'aérodrome : 502 ft
- Code IATA : ORK


EICK - Cork

DERNIER METAR :
  • 111800Z 18006KT 150V210 9999 FEW039 21/17 Q1016 NOSIG

METARs EXPIRÉS :
  • 111730Z 22004KT 150V280 9999 FEW041 24/13 Q1015 NOSIG
  • 111700Z 26004KT 200V300 9999 FEW034 23/13 Q1015 NOSIG
  • 111630Z 30004KT 230V360 9999 FEW034 23/12 Q1016 NOSIG
  • 111600Z 28004KT 220V320 9999 FEW034 23/12 Q1016 NOSIG
  • 111530Z 25004KT 170V300 9999 FEW034 23/13 Q1016 NOSIG

TAF TAF EICK
Valide du 11 à 18h jusqu'au 12 à 18h UTC


111700Z 1118/1218 35005KT 9999 SCT020
PROB40
TEMPO 1203/1208 3000 BR BKN006
PROB30
TEMPO 1204/1207 0400 FG BKN001
BECMG 1209/1211 02010KT



MET'MAP, la Météo Aéronautique d'un coup d'oeil ! - Copyright ORBIFLY Décembre 2007 - Disclaimer

ORBIFLY MET'MAP TEAM :

Programmation & Développement : Alexandra Zaïnal
Sur une idée originale de : Baudouin d'Aumeries
Assistance à la programmation : Marc-Olivier Méhu
Soutien technique & logistique : Manuel Goepfert

Contact : metmap@orbifly.com




SOURCES & CREDITS :

   NOAA